Meander River, Canada
Current Conditions -  °F | °C
As of 7:00 AM on Thursday 18 Dec 2014 (Local Time) from CYOJ Reporting Station
Few Clouds Few Clouds  
Wind Chill:   Ceiling: Unl
Heat Index:   Visibility: 15mi
Dew Point: -2°   Wind: 0mph
Humidity: 92%   Direction: NA
Pressure: 29.78"   Gusts: NA
Location:  59.03°N, 117.68°W
Report Text: CYOJ 181400Z 00000KT 15SM FEW075 M18/M19 A2978 RMK AC2 SLP121
Loading
Personal Weather Stations






























Interactive Weather Map New forecast layout! Learn more

10-Day Weather Forecast

Advertisements
Track Severe Weather on mobile